Time;durP1;ratioP1;P1;durP2;ratioP2;P2;SDS_P1;SDS_P2;PMS_P1;PMS_P2;Temp;Humidity;BMP_temperature;BMP_pressure;BME280_temperature;BME280_humidity;BME280_pressure;Samples;Min_cycle;Max_cycle;Signal;HPM_P1;HPM_P2
2023/09/15 00:01:54;;;;;;;4.63;4.43;;;;;;;;;;4883222;29;20475;-72
2023/09/15 00:04:20;;;;;;;4.90;4.53;;;;;;;;;;4888079;29;20417;-72
2023/09/15 00:06:47;;;;;;;4.67;4.47;;;;;;;;;;4887524;29;20464;-72
2023/09/15 00:09:18;;;;;;;4.20;4.10;;;;;;;;;;4886726;29;20451;-72
2023/09/15 00:11:47;;;;;;;5.60;5.20;;;;;;;;;;4885390;29;20508;-73
2023/09/15 00:14:14;;;;;;;5.60;5.10;;;;;;;;;;4888490;29;20476;-71
2023/09/15 00:16:40;;;;;;;5.30;5.03;;;;;;;;;;4888217;29;20448;-72
2023/09/15 00:19:07;;;;;;;6.10;5.80;;;;;;;;;;4888983;29;20431;-71
2023/09/15 00:21:33;;;;;;;5.23;4.83;;;;;;;;;;4884520;29;20861;-72
2023/09/15 00:24:05;;;;;;;4.90;4.70;;;;;;;;;;4889587;29;20409;-73
2023/09/15 00:26:32;;;;;;;5.27;4.87;;;;;;;;;;4886977;29;20447;-72
2023/09/15 00:28:58;;;;;;;4.30;4.20;;;;;;;;;;4886377;29;20449;-72
2023/09/15 00:31:24;;;;;;;4.63;4.43;;;;;;;;;;4886280;29;20457;-71
2023/09/15 00:33:50;;;;;;;4.63;4.33;;;;;;;;;;4888882;29;20413;-72
2023/09/15 00:36:16;;;;;;;4.63;4.43;;;;;;;;;;4887502;29;20429;-72
2023/09/15 00:38:42;;;;;;;4.53;4.40;;;;;;;;;;4892386;29;20470;-72
2023/09/15 00:41:08;;;;;;;4.53;4.17;;;;;;;;;;4886836;29;20442;-73
2023/09/15 00:43:34;;;;;;;5.33;4.60;;;;;;;;;;4883081;29;20663;-72
2023/09/15 00:46:01;;;;;;;4.13;4.10;;;;;;;;;;4892438;29;21012;-72
2023/09/15 00:48:27;;;;;;;4.67;4.37;;;;;;;;;;4891955;29;20532;-73
2023/09/15 00:50:56;;;;;;;4.73;4.43;;;;;;;;;;4879905;29;20653;-73
2023/09/15 00:53:23;;;;;;;4.87;4.43;;;;;;;;;;4887181;29;20448;-73
2023/09/15 00:55:51;;;;;;;4.90;4.50;;;;;;;;;;4892099;29;20441;-72
2023/09/15 00:58:18;;;;;;;4.17;4.07;;;;;;;;;;4879219;29;20426;-72
2023/09/15 01:00:44;;;;;;;5.23;4.93;;;;;;;;;;4887232;29;21292;-72
2023/09/15 01:03:11;;;;;;;4.60;4.40;;;;;;;;;;4890944;29;20445;-71
2023/09/15 01:05:39;;;;;;;4.80;4.57;;;;;;;;;;4879691;29;20939;-72
2023/09/15 01:08:06;;;;;;;4.23;3.93;;;;;;;;;;4882478;29;20985;-72
2023/09/15 01:10:33;;;;;;;4.77;4.37;;;;;;;;;;4882535;29;20536;-73
2023/09/15 01:13:03;;;;;;;5.30;5.00;;;;;;;;;;4892163;29;20457;-71
2023/09/15 01:15:33;;;;;;;5.13;4.83;;;;;;;;;;4888414;29;20503;-72
2023/09/15 01:18:10;;;;;;;4.30;4.20;;;;;;;;;;4891628;29;20452;-72
2023/09/15 01:20:36;;;;;;;4.90;4.60;;;;;;;;;;4886700;29;20440;-72
2023/09/15 01:23:05;;;;;;;4.77;4.67;;;;;;;;;;4891869;29;20471;-72
2023/09/15 01:25:52;;;;;;;4.70;4.40;;;;;;;;;;4888493;29;20452;-71
2023/09/15 01:28:33;;;;;;;4.43;4.23;;;;;;;;;;4890440;29;20556;-72
2023/09/15 01:31:00;;;;;;;8.23;5.00;;;;;;;;;;4887202;29;20441;-73
2023/09/15 01:33:26;;;;;;;4.50;4.23;;;;;;;;;;4890687;29;20451;-72
2023/09/15 01:35:52;;;;;;;5.57;5.17;;;;;;;;;;4890799;29;20449;-73
2023/09/15 01:38:18;;;;;;;6.23;5.93;;;;;;;;;;4891483;29;20488;-73
2023/09/15 01:40:44;;;;;;;4.03;3.93;;;;;;;;;;4887751;29;20456;-73
2023/09/15 01:43:10;;;;;;;5.03;4.73;;;;;;;;;;4890863;29;20447;-72
2023/09/15 01:45:36;;;;;;;4.60;4.50;;;;;;;;;;4888607;29;20457;-72
2023/09/15 01:48:03;;;;;;;5.13;4.93;;;;;;;;;;4890218;29;20476;-72
2023/09/15 01:50:30;;;;;;;4.50;4.40;;;;;;;;;;4886244;29;21040;-73
2023/09/15 01:52:57;;;;;;;4.43;4.23;;;;;;;;;;4889658;29;20428;-72
2023/09/15 01:55:23;;;;;;;4.73;4.40;;;;;;;;;;4890053;29;20440;-73
2023/09/15 01:57:49;;;;;;;4.53;4.40;;;;;;;;;;4887460;29;20522;-73
2023/09/15 02:00:15;;;;;;;5.10;4.90;;;;;;;;;;4886396;29;21060;-72
2023/09/15 02:02:41;;;;;;;5.00;4.80;;;;;;;;;;4881514;29;20522;-73
2023/09/15 02:05:07;;;;;;;4.97;4.70;;;;;;;;;;4890225;29;20539;-72
2023/09/15 02:07:33;;;;;;;4.73;4.43;;;;;;;;;;4890184;29;20476;-73
2023/09/15 02:09:59;;;;;;;4.97;4.70;;;;;;;;;;4878402;29;20441;-72
2023/09/15 02:12:25;;;;;;;5.00;4.60;;;;;;;;;;4892271;29;20428;-72
2023/09/15 02:14:51;;;;;;;5.30;5.00;;;;;;;;;;4890955;29;20452;-73
2023/09/15 02:17:17;;;;;;;4.93;4.60;;;;;;;;;;4890655;29;20428;-73
2023/09/15 02:19:43;;;;;;;4.80;4.60;;;;;;;;;;4888782;29;20545;-73
2023/09/15 02:22:09;;;;;;;5.37;4.87;;;;;;;;;;4881687;29;20491;-72
2023/09/15 02:24:35;;;;;;;5.73;4.20;;;;;;;;;;4878915;29;20934;-73
2023/09/15 02:27:01;;;;;;;6.60;5.43;;;;;;;;;;4900502;29;20965;-73
2023/09/15 02:29:27;;;;;;;4.40;4.10;;;;;;;;;;4887149;29;21144;-72
2023/09/15 02:31:54;;;;;;;6.73;4.53;;;;;;;;;;4885533;29;20456;-73
2023/09/15 02:34:20;;;;;;;4.50;4.30;;;;;;;;;;4890314;29;20488;-73
2023/09/15 02:36:46;;;;;;;4.10;3.80;;;;;;;;;;4888776;29;20623;-73
2023/09/15 02:39:12;;;;;;;4.30;4.00;;;;;;;;;;4887277;29;20605;-72
2023/09/15 02:41:38;;;;;;;4.17;3.90;;;;;;;;;;4883927;29;20456;-73
2023/09/15 02:44:04;;;;;;;3.80;3.47;;;;;;;;;;4890168;29;20452;-72
2023/09/15 02:46:30;;;;;;;4.10;3.97;;;;;;;;;;4892786;29;20456;-74
2023/09/15 02:48:57;;;;;;;4.33;4.03;;;;;;;;;;4887931;29;21107;-72
2023/09/15 02:51:23;;;;;;;4.60;4.20;;;;;;;;;;4883942;29;20982;-73
2023/09/15 02:53:49;;;;;;;4.73;4.53;;;;;;;;;;4876534;29;20442;-73
2023/09/15 02:56:15;;;;;;;4.27;4.00;;;;;;;;;;4880445;29;21111;-73
2023/09/15 02:58:41;;;;;;;4.00;3.90;;;;;;;;;;4889725;29;20455;-73
2023/09/15 03:01:11;;;;;;;4.20;3.93;;;;;;;;;;4885177;29;20469;-73
2023/09/15 03:03:37;;;;;;;4.10;4.00;;;;;;;;;;4887535;29;20449;-73
2023/09/15 03:06:04;;;;;;;3.80;3.70;;;;;;;;;;4888886;29;20552;-73
2023/09/15 03:08:30;;;;;;;3.80;3.60;;;;;;;;;;4889374;29;20540;-72
2023/09/15 03:10:56;;;;;;;4.10;3.90;;;;;;;;;;4876981;29;20466;-71
2023/09/15 03:13:22;;;;;;;5.10;4.23;;;;;;;;;;4885081;29;20450;-71
2023/09/15 03:15:48;;;;;;;4.90;4.80;;;;;;;;;;4889360;29;20449;-71
2023/09/15 03:18:14;;;;;;;4.90;4.57;;;;;;;;;;4889773;29;20437;-71
2023/09/15 03:20:40;;;;;;;4.40;4.30;;;;;;;;;;4881941;29;20461;-71
2023/09/15 03:23:06;;;;;;;5.00;4.70;;;;;;;;;;4886726;29;20444;-72
2023/09/15 03:25:32;;;;;;;4.70;4.33;;;;;;;;;;4889171;29;20452;-71
2023/09/15 03:27:58;;;;;;;5.53;5.23;;;;;;;;;;4890042;29;20980;-72
2023/09/15 03:30:24;;;;;;;4.37;4.17;;;;;;;;;;4885556;29;20443;-73
2023/09/15 03:32:49;;;;;;;4.77;4.60;;;;;;;;;;4889319;29;20445;-73
2023/09/15 03:35:16;;;;;;;5.93;5.53;;;;;;;;;;4882361;29;20452;-73
2023/09/15 03:37:42;;;;;;;4.97;4.67;;;;;;;;;;4886353;29;20467;-73
2023/09/15 03:40:11;;;;;;;4.70;4.40;;;;;;;;;;4884965;29;20472;-73
2023/09/15 03:42:37;;;;;;;4.43;4.13;;;;;;;;;;4889061;29;20473;-73
2023/09/15 03:45:04;;;;;;;4.10;4.00;;;;;;;;;;4882984;29;21308;-73
2023/09/15 03:47:30;;;;;;;4.60;4.40;;;;;;;;;;4885980;29;21003;-73
2023/09/15 03:49:56;;;;;;;5.33;5.03;;;;;;;;;;4885109;29;20459;-73
2023/09/15 03:52:22;;;;;;;5.20;4.77;;;;;;;;;;4888565;29;20436;-72
2023/09/15 03:54:48;;;;;;;5.43;5.03;;;;;;;;;;4881269;29;20521;-73
2023/09/15 03:57:14;;;;;;;4.97;4.70;;;;;;;;;;4885209;29;20450;-73
2023/09/15 03:59:40;;;;;;;4.93;4.63;;;;;;;;;;4885183;29;20449;-73
2023/09/15 04:02:07;;;;;;;4.37;4.17;;;;;;;;;;4883616;29;20492;-73
2023/09/15 04:04:33;;;;;;;5.27;4.80;;;;;;;;;;4886840;29;20586;-73
2023/09/15 04:06:59;;;;;;;7.23;5.40;;;;;;;;;;4886595;29;21004;-72
2023/09/15 04:09:25;;;;;;;4.60;4.40;;;;;;;;;;4881939;29;20938;-73
2023/09/15 04:11:51;;;;;;;5.13;4.93;;;;;;;;;;4890162;29;20511;-71
2023/09/15 04:14:17;;;;;;;5.57;4.97;;;;;;;;;;4893429;29;20532;-72
2023/09/15 04:16:43;;;;;;;4.30;4.20;;;;;;;;;;4887555;29;20405;-72
2023/09/15 04:19:09;;;;;;;9.67;6.50;;;;;;;;;;4887575;29;20452;-71
2023/09/15 04:21:38;;;;;;;6.87;4.43;;;;;;;;;;4892111;29;20531;-72
2023/09/15 04:24:04;;;;;;;6.50;5.17;;;;;;;;;;4893742;29;20599;-72
2023/09/15 04:26:30;;;;;;;5.20;4.90;;;;;;;;;;4889249;29;20422;-72
2023/09/15 04:28:58;;;;;;;5.50;5.20;;;;;;;;;;4891094;29;20452;-72
2023/09/15 04:31:24;;;;;;;7.03;6.57;;;;;;;;;;4893118;29;20441;-72
2023/09/15 04:33:50;;;;;;;5.60;5.20;;;;;;;;;;4891248;29;20456;-72
2023/09/15 04:36:16;;;;;;;5.40;4.97;;;;;;;;;;4887725;29;20469;-72
2023/09/15 04:38:43;;;;;;;7.03;6.30;;;;;;;;;;4892182;29;20483;-72
2023/09/15 04:41:09;;;;;;;5.60;5.10;;;;;;;;;;4891383;29;21252;-71
2023/09/15 04:43:35;;;;;;;5.60;5.30;;;;;;;;;;4890175;29;20819;-73
2023/09/15 04:46:01;;;;;;;5.20;4.97;;;;;;;;;;4894428;29;20452;-72
2023/09/15 04:48:27;;;;;;;6.53;6.00;;;;;;;;;;4894518;29;20579;-72
2023/09/15 04:50:53;;;;;;;8.97;4.90;;;;;;;;;;4894748;29;20484;-73
2023/09/15 04:53:20;;;;;;;5.97;5.57;;;;;;;;;;4891193;29;20491;-71
2023/09/15 04:55:48;;;;;;;8.87;5.80;;;;;;;;;;4894319;29;20444;-72
2023/09/15 04:58:14;;;;;;;4.93;4.63;;;;;;;;;;4889634;29;20444;-72
2023/09/15 05:00:40;;;;;;;5.10;4.80;;;;;;;;;;4893247;29;20468;-72
2023/09/15 05:03:08;;;;;;;6.40;5.33;;;;;;;;;;4891665;29;20440;-72
2023/09/15 05:05:34;;;;;;;8.20;5.77;;;;;;;;;;4881449;29;20520;-73
2023/09/15 05:08:00;;;;;;;5.40;4.90;;;;;;;;;;4887588;29;20524;-73
2023/09/15 05:10:26;;;;;;;5.53;5.33;;;;;;;;;;4878965;29;20924;-74
2023/09/15 05:12:52;;;;;;;6.03;5.63;;;;;;;;;;4892549;29;20408;-73
2023/09/15 05:15:18;;;;;;;5.57;5.20;;;;;;;;;;4894639;29;20435;-72
2023/09/15 05:17:47;;;;;;;5.47;5.17;;;;;;;;;;4889731;29;20472;-73
2023/09/15 05:20:13;;;;;;;5.53;5.30;;;;;;;;;;4894158;29;20465;-72
2023/09/15 05:22:39;;;;;;;5.47;4.93;;;;;;;;;;4888548;29;20460;-73
2023/09/15 05:25:06;;;;;;;5.07;4.77;;;;;;;;;;4888154;29;20932;-72
2023/09/15 05:27:32;;;;;;;4.77;4.67;;;;;;;;;;4881215;29;20563;-73
2023/09/15 05:29:58;;;;;;;8.10;5.73;;;;;;;;;;4889779;29;20532;-71
2023/09/15 05:32:24;;;;;;;5.20;4.60;;;;;;;;;;4887476;29;20883;-73
2023/09/15 05:34:50;;;;;;;6.43;5.50;;;;;;;;;;4886335;29;20988;-72
2023/09/15 05:37:16;;;;;;;8.60;5.03;;;;;;;;;;4882733;29;21000;-73
2023/09/15 05:39:42;;;;;;;5.97;5.27;;;;;;;;;;4882472;29;20441;-72
2023/09/15 05:42:08;;;;;;;6.33;4.77;;;;;;;;;;4881283;29;20461;-73
2023/09/15 05:44:34;;;;;;;5.03;4.50;;;;;;;;;;4875647;29;20454;-73
2023/09/15 05:47:01;;;;;;;5.10;4.70;;;;;;;;;;4880228;29;20477;-73
2023/09/15 05:49:27;;;;;;;5.13;4.63;;;;;;;;;;4877723;29;21128;-73
2023/09/15 05:51:53;;;;;;;7.30;4.90;;;;;;;;;;4876848;29;20560;-73
2023/09/15 05:54:19;;;;;;;4.97;4.67;;;;;;;;;;4871202;29;20585;-73
2023/09/15 05:56:45;;;;;;;5.60;5.20;;;;;;;;;;4876017;29;20917;-73
2023/09/15 05:59:11;;;;;;;5.77;5.37;;;;;;;;;;4881953;29;20553;-73
2023/09/15 06:01:39;;;;;;;4.83;4.33;;;;;;;;;;4875039;29;20931;-72
2023/09/15 06:04:07;;;;;;;5.27;4.07;;;;;;;;;;4878934;29;21058;-72
2023/09/15 06:06:34;;;;;;;4.27;3.90;;;;;;;;;;4879036;29;20453;-73
2023/09/15 06:09:00;;;;;;;3.40;3.30;;;;;;;;;;4879615;29;20560;-72
2023/09/15 06:11:26;;;;;;;4.27;3.97;;;;;;;;;;4880081;29;20448;-72
2023/09/15 06:13:52;;;;;;;4.10;3.17;;;;;;;;;;4872884;29;20443;-72
2023/09/15 06:16:18;;;;;;;4.10;3.43;;;;;;;;;;4878606;29;20533;-72
2023/09/15 06:18:44;;;;;;;3.80;3.57;;;;;;;;;;4871119;29;20444;-71
2023/09/15 06:21:10;;;;;;;3.23;3.00;;;;;;;;;;4879687;29;20456;-72
2023/09/15 06:23:36;;;;;;;4.93;4.60;;;;;;;;;;4879439;29;20447;-73
2023/09/15 06:26:02;;;;;;;3.63;3.53;;;;;;;;;;4884830;29;20473;-74
2023/09/15 06:28:28;;;;;;;3.60;3.40;;;;;;;;;;4887142;29;20504;-72
2023/09/15 06:30:54;;;;;;;3.40;3.20;;;;;;;;;;4882817;29;21235;-73
2023/09/15 06:33:21;;;;;;;4.00;3.80;;;;;;;;;;4885363;29;20450;-73
2023/09/15 06:35:47;;;;;;;3.40;3.10;;;;;;;;;;4885707;29;20936;-72
2023/09/15 06:38:13;;;;;;;3.47;3.33;;;;;;;;;;4887604;29;20449;-72
2023/09/15 06:40:39;;;;;;;3.30;3.00;;;;;;;;;;4873507;29;20464;-72
2023/09/15 06:43:07;;;;;;;3.73;3.53;;;;;;;;;;4871715;29;20551;-72
2023/09/15 06:45:33;;;;;;;3.20;2.97;;;;;;;;;;4872831;29;20468;-73
2023/09/15 06:47:59;;;;;;;10.80;3.63;;;;;;;;;;4873688;29;20476;-73
2023/09/15 06:50:25;;;;;;;3.43;3.23;;;;;;;;;;4877726;29;20426;-72
2023/09/15 06:52:52;;;;;;;3.97;3.63;;;;;;;;;;4875206;29;21099;-70
2023/09/15 06:55:18;;;;;;;3.50;3.30;;;;;;;;;;4889412;29;20444;-71
2023/09/15 06:57:44;;;;;;;4.03;3.73;;;;;;;;;;4883501;29;20457;-73
2023/09/15 07:00:10;;;;;;;3.87;3.33;;;;;;;;;;4885019;29;20781;-72
2023/09/15 07:02:36;;;;;;;3.30;3.20;;;;;;;;;;4886238;29;20452;-72
2023/09/15 07:05:02;;;;;;;3.13;2.93;;;;;;;;;;4883416;29;20453;-72
2023/09/15 07:07:28;;;;;;;3.57;3.40;;;;;;;;;;4881307;29;20552;-72
2023/09/15 07:09:54;;;;;;;2.70;2.70;;;;;;;;;;4876012;29;20667;-73
2023/09/15 07:12:21;;;;;;;4.77;3.60;;;;;;;;;;4879880;29;20441;-73
2023/09/15 07:14:49;;;;;;;3.33;3.10;;;;;;;;;;4878880;29;20452;-73
2023/09/15 07:17:16;;;;;;;5.57;2.87;;;;;;;;;;4879637;29;20472;-73
2023/09/15 07:19:44;;;;;;;3.47;3.30;;;;;;;;;;4884995;29;20967;-73
2023/09/15 07:22:10;;;;;;;3.43;3.07;;;;;;;;;;4877260;29;20433;-74
2023/09/15 07:24:40;;;;;;;2.60;2.50;;;;;;;;;;4872722;29;21180;-74
2023/09/15 07:27:06;;;;;;;3.70;3.33;;;;;;;;;;4872576;29;20922;-74
2023/09/15 07:29:32;;;;;;;4.27;3.33;;;;;;;;;;4879949;29;20552;-74
2023/09/15 07:31:59;;;;;;;3.20;3.00;;;;;;;;;;4884412;29;20937;-74
2023/09/15 07:34:25;;;;;;;5.83;4.00;;;;;;;;;;4885249;29;20465;-74
2023/09/15 07:36:51;;;;;;;2.43;2.43;;;;;;;;;;4882010;29;20460;-74
2023/09/15 07:39:18;;;;;;;4.17;3.80;;;;;;;;;;4875604;29;20425;-74
2023/09/15 07:41:45;;;;;;;3.80;3.57;;;;;;;;;;4884687;29;21031;-74
2023/09/15 07:44:11;;;;;;;3.67;3.37;;;;;;;;;;4877835;29;20460;-74
2023/09/15 07:46:37;;;;;;;3.20;3.00;;;;;;;;;;4879980;29;20448;-73
2023/09/15 07:49:05;;;;;;;4.73;2.83;;;;;;;;;;4881957;29;20522;-73
2023/09/15 07:51:31;;;;;;;3.20;2.80;;;;;;;;;;4878301;29;20453;-73
2023/09/15 07:53:57;;;;;;;3.00;2.80;;;;;;;;;;4880801;29;20475;-73
2023/09/15 07:56:23;;;;;;;3.27;3.00;;;;;;;;;;4879257;29;20456;-72
2023/09/15 07:58:49;;;;;;;4.30;3.03;;;;;;;;;;4878680;29;20452;-74
2023/09/15 08:01:15;;;;;;;2.87;2.80;;;;;;;;;;4878530;29;20473;-72
2023/09/15 08:03:42;;;;;;;3.67;3.37;;;;;;;;;;4876840;29;20480;-73
2023/09/15 08:06:08;;;;;;;3.63;3.33;;;;;;;;;;4881053;29;20535;-72
2023/09/15 08:08:34;;;;;;;3.47;3.23;;;;;;;;;;4882495;29;20468;-73
2023/09/15 08:11:01;;;;;;;4.53;2.97;;;;;;;;;;4875569;29;20488;-73
2023/09/15 08:13:27;;;;;;;2.80;2.70;;;;;;;;;;4882557;29;20933;-74
2023/09/15 08:15:52;;;;;;;3.10;2.77;;;29.00;78.70;;;;;;4877417;29;20452;-74
2023/09/15 08:18:19;;;;;;;3.43;3.20;;;29.20;82.90;;;;;;4879106;29;20684;-73
2023/09/15 08:20:44;;;;;;;3.33;3.07;;;28.90;87.00;;;;;;4878715;29;20209;-73
2023/09/15 08:23:12;;;;;;;3.13;3.00;;;28.60;91.50;;;;;;4874058;29;20507;-73
2023/09/15 08:25:38;;;;;;;2.70;2.60;;;28.80;92.10;;;;;;4876890;29;20433;-74
2023/09/15 08:28:06;;;;;;;3.13;3.03;;;;;;;;;;4880367;29;20480;-73
2023/09/15 08:30:33;;;;;;;2.97;2.87;;;;;;;;;;4878693;29;20455;-74
2023/09/15 08:32:59;;;;;;;3.77;2.47;;;30.30;87.10;;;;;;4883096;29;20440;-74
2023/09/15 08:35:25;;;;;;;7.70;7.00;;;;;;;;;;4886669;29;20721;-73
2023/09/15 08:37:51;;;;;;;2.80;2.70;;;;;;;;;;4890106;29;20487;-73
2023/09/15 08:40:19;;;;;;;3.80;3.03;;;;;;;;;;4891510;29;20964;-73
2023/09/15 08:42:45;;;;;;;2.90;2.80;;;;;;;;;;4879099;29;20451;-73
2023/09/15 08:45:13;;;;;;;3.13;2.93;;;;;;;;;;4882855;29;20437;-73
2023/09/15 08:47:42;;;;;;;4.33;3.27;;;;;;;;;;4874956;29;20531;-72
2023/09/15 08:50:09;;;;;;;2.83;2.77;;;;;;;;;;4877083;29;20461;-73
2023/09/15 08:52:35;;;;;;;3.00;2.80;;;;;;;;;;4888249;29;20515;-74
2023/09/15 08:55:01;;;;;;;3.00;2.90;;;;;;;;;;4888574;29;20444;-74
2023/09/15 08:57:29;;;;;;;3.30;2.80;;;;;;;;;;4881819;29;20469;-74
2023/09/15 08:59:55;;;;;;;3.00;2.80;;;;;;;;;;4886603;29;20468;-73
2023/09/15 09:02:23;;;;;;;3.10;3.00;;;;;;;;;;4877755;29;21103;-73
2023/09/15 09:04:51;;;;;;;2.80;2.70;;;;;;;;;;4882256;29;20899;-73
2023/09/15 09:07:17;;;;;;;3.60;2.20;;;;;;;;;;4882881;29;20983;-73
2023/09/15 09:09:44;;;;;;;2.43;2.33;;;;;;;;;;4887837;29;20540;-73
2023/09/15 09:12:10;;;;;;;3.30;3.20;;;;;;;;;;4886831;29;21288;-72
2023/09/15 09:14:36;;;;;;;3.00;2.90;;;;;;;;;;4878987;29;20453;-72
2023/09/15 09:17:03;;;;;;;2.83;2.73;;;;;;;;;;4880584;29;20565;-72
2023/09/15 09:19:36;;;;;;;3.63;2.90;;;;;;;;;;4881997;29;21121;-73
2023/09/15 09:22:02;;;;;;;2.83;2.73;;;;;;;;;;4882012;29;20433;-74
2023/09/15 09:24:28;;;;;;;2.90;2.90;;;;;;;;;;4882585;29;20999;-74
2023/09/15 09:26:54;;;;;;;2.90;2.90;;;;;;;;;;4884234;29;20625;-73
2023/09/15 09:29:28;;;;;;;3.87;3.57;;;;;;;;;;4882105;29;20448;-74
2023/09/15 09:31:55;;;;;;;3.60;3.30;;;;;;;;;;4883562;29;21039;-73
2023/09/15 09:34:21;;;;;;;2.70;2.70;;;;;;;;;;4881211;29;20463;-73
2023/09/15 09:36:48;;;;;;;3.80;3.60;;;;;;;;;;4883584;29;20449;-73
2023/09/15 09:39:14;;;;;;;3.07;2.97;;;;;;;;;;4881492;29;21155;-73
2023/09/15 09:41:42;;;;;;;3.20;3.07;;;;;;;;;;4887928;29;20449;-73
2023/09/15 09:44:08;;;;;;;3.17;3.07;;;;;;;;;;4879494;29;20461;-72
2023/09/15 09:46:36;;;;;;;2.73;2.60;;;;;;;;;;4888293;29;20447;-74
2023/09/15 09:49:02;;;;;;;3.40;3.30;;;;;;;;;;4878856;29;20552;-73
2023/09/15 09:51:32;;;;;;;3.30;3.20;;;;;;;;;;4883892;29;20448;-74
2023/09/15 09:53:58;;;;;;;2.70;2.60;;;;;;;;;;4875563;29;20481;-73
2023/09/15 09:56:24;;;;;;;3.90;3.80;;;;;;;;;;4887468;29;20605;-72
2023/09/15 09:58:50;;;;;;;3.83;3.73;;;;;;;;;;4889435;29;20551;-73
2023/09/15 10:01:16;;;;;;;3.50;3.40;;;;;;;;;;4892646;29;20506;-74
2023/09/15 10:03:42;;;;;;;3.07;3.00;;;;;;;;;;4885615;29;20472;-73
2023/09/15 10:06:08;;;;;;;4.43;4.23;;;;;;;;;;4885496;29;20436;-74
2023/09/15 10:08:39;;;;;;;4.03;3.73;;;;;;;;;;4872741;29;20450;-73
2023/09/15 10:11:06;;;;;;;2.97;2.90;;;;;;;;;;4873153;29;20621;-73
2023/09/15 10:13:32;;;;;;;3.80;3.60;;;;;;;;;;4874295;29;20555;-73
2023/09/15 10:15:59;;;;;;;3.37;3.27;;;;;;;;;;4880712;29;20463;-74
2023/09/15 10:18:25;;;;;;;4.17;3.97;;;;;;;;;;4873992;29;20473;-74
2023/09/15 10:20:53;;;;;;;3.40;3.27;;;;;;;;;;4880407;29;20543;-75
2023/09/15 10:23:19;;;;;;;3.50;3.23;;;;;;;;;;4881274;29;20440;-75
2023/09/15 10:25:50;;;;;;;3.37;3.27;;;35.10;53.10;;;;;;4880468;29;20461;-74
2023/09/15 10:28:19;;;;;;;3.90;3.77;;;35.10;52.00;;;;;;4881193;29;20444;-74
2023/09/15 10:30:46;;;;;;;2.90;2.80;;;34.80;52.00;;;;;;4884181;29;20519;-73
2023/09/15 10:33:15;;;;;;;2.77;2.77;;;35.40;57.40;;;;;;4883744;29;20629;-74
2023/09/15 10:35:43;;;;;;;4.07;3.93;;;35.70;58.50;;;;;;4884337;29;20541;-74
2023/09/15 10:38:09;;;;;;;4.20;3.90;;;35.60;57.80;;;;;;4880006;29;20559;-74
2023/09/15 10:40:47;;;;;;;3.30;3.20;;;35.10;58.70;;;;;;4881148;29;20539;-72
2023/09/15 10:43:17;;;;;;;2.80;2.70;;;;;;;;;;4885014;29;20469;-73
2023/09/15 10:46:02;;;;;;;3.53;3.27;;;;;;;;;;4879708;29;20471;-72
2023/09/15 10:48:48;;;;;;;3.20;2.97;;;;;;;;;;4887775;29;20441;-73
2023/09/15 10:51:16;;;;;;;3.10;2.80;;;;;;;;;;4877768;29;20452;-74
2023/09/15 10:53:49;;;;;;;2.83;2.73;;;;;;;;;;4880274;29;20463;-73
2023/09/15 10:56:16;;;;;;;3.00;2.90;;;35.60;58.60;;;;;;4880576;29;20437;-73
2023/09/15 10:58:43;;;;;;;2.70;2.60;;;;;;;;;;4884635;29;20490;-75
2023/09/15 11:01:10;;;;;;;3.43;3.20;;;37.30;57.30;;;;;;4881111;29;20463;-74
2023/09/15 11:03:41;;;;;;;2.90;2.90;;;37.20;58.30;;;;;;4880672;29;20564;-74
2023/09/15 11:06:16;;;;;;;4.40;4.00;;;;;;;;;;4882713;29;20448;-75
2023/09/15 11:08:42;;;;;;;3.20;3.10;;;36.60;57.30;;;;;;4881131;29;20458;-74
2023/09/15 11:11:11;;;;;;;2.77;2.70;;;;;;;;;;4882790;29;20440;-74
2023/09/15 11:13:38;;;;;;;2.90;2.80;;;;;;;;;;4879857;29;20540;-74
2023/09/15 11:16:05;;;;;;;2.73;2.63;;;;;;;;;;4882448;29;20447;-74
2023/09/15 11:18:35;;;;;;;2.90;2.80;;;36.80;57.70;;;;;;4883709;29;20568;-74
2023/09/15 11:21:01;;;;;;;3.30;3.10;;;37.20;60.30;;;;;;4876996;29;20464;-76
2023/09/15 11:23:28;;;;;;;3.23;3.17;;;37.00;58.50;;;;;;4873248;29;21227;-74
2023/09/15 11:26:06;;;;;;;3.13;2.93;;;36.90;58.30;;;;;;4881215;29;20931;-75
2023/09/15 11:28:33;;;;;;;3.10;2.90;;;;;;;;;;4876235;29;20484;-75
2023/09/15 11:31:00;;;;;;;2.93;2.83;;;;;;;;;;4877475;29;20445;-74
2023/09/15 11:33:26;;;;;;;3.33;2.90;;;37.90;58.50;;;;;;4878031;29;21265;-75
2023/09/15 11:35:54;;;;;;;3.07;3.00;;;38.10;57.00;;;;;;4875700;29;20458;-75
2023/09/15 11:38:19;;;;;;;2.80;2.70;;;38.10;57.20;;;;;;4882878;29;20983;-73
2023/09/15 11:40:47;;;;;;;2.83;2.83;;;;;;;;;;4878045;29;20482;-74
2023/09/15 11:43:13;;;;;;;3.27;3.10;;;37.40;57.10;;;;;;4885074;29;20677;-74
2023/09/15 11:45:40;;;;;;;2.40;2.30;;;;;;;;;;4871022;29;20980;-75
2023/09/15 11:48:06;;;;;;;2.43;2.43;;;35.80;58.30;;;;;;4862968;29;20820;-73
2023/09/15 11:50:33;;;;;;;2.07;2.00;;;36.40;57.40;;;;;;4870987;29;20453;-74
2023/09/15 11:52:59;;;;;;;2.80;2.60;;;36.70;57.90;;;;;;4878200;29;20436;-74
2023/09/15 11:55:25;;;;;;;2.17;2.07;;;37.40;57.30;;;;;;4877755;29;20862;-75
2023/09/15 11:57:52;;;;;;;2.93;2.73;;;37.00;56.40;;;;;;4872732;29;21637;-75
2023/09/15 12:00:20;;;;;;;2.13;2.13;;;37.00;56.60;;;;;;4877410;29;20838;-73
2023/09/15 12:02:49;;;;;;;2.10;2.10;;;37.20;56.60;;;;;;4874503;29;20440;-75
2023/09/15 12:05:18;;;;;;;2.30;2.30;;;37.60;55.00;;;;;;4875094;29;20458;-74
2023/09/15 12:07:47;;;;;;;2.80;2.70;;;36.60;55.00;;;;;;4879157;29;20453;-74
2023/09/15 12:10:25;;;;;;;2.70;2.50;;;36.20;55.00;;;;;;4880937;29;20445;-74
2023/09/15 12:12:57;;;;;;;2.00;1.80;;;36.80;56.10;;;;;;4876802;29;20452;-74
2023/09/15 12:15:23;;;;;;;2.37;2.30;;;37.80;55.60;;;;;;4872805;29;20481;-74
2023/09/15 12:17:50;;;;;;;2.17;2.17;;;38.10;54.60;;;;;;4871611;29;20476;-74
2023/09/15 12:20:24;;;;;;;1.50;1.50;;;38.60;55.20;;;;;;4878510;29;20468;-74
2023/09/15 12:22:53;;;;;;;2.13;2.10;;;39.20;55.60;;;;;;4882490;29;20441;-75
2023/09/15 12:25:20;;;;;;;2.47;2.20;;;38.70;55.30;;;;;;4880458;29;20991;-75
2023/09/15 12:27:46;;;;;;;2.10;2.00;;;38.70;55.10;;;;;;4880090;29;20536;-74
2023/09/15 12:30:13;;;;;;;4.47;1.70;;;39.30;54.70;;;;;;4880669;29;20850;-75
2023/09/15 12:32:39;;;;;;;2.60;2.07;;;38.30;53.10;;;;;;4879759;29;21420;-75
2023/09/15 12:35:12;;;;;;;1.90;1.90;;;38.30;53.40;;;;;;4885871;29;20472;-74
2023/09/15 12:37:42;;;;;;;1.63;1.63;;;37.40;52.90;;;;;;4883342;29;20223;-73
2023/09/15 12:40:08;;;;;;;2.00;1.90;;;37.20;52.60;;;;;;4885501;29;20449;-73
2023/09/15 12:42:35;;;;;;;1.80;1.80;;;37.00;53.20;;;;;;4883165;29;20437;-73
2023/09/15 12:45:03;;;;;;;1.93;1.93;;;36.90;52.90;;;;;;4882382;29;20444;-73
2023/09/15 12:47:28;;;;;;;1.73;1.73;;;36.80;52.90;;;;;;4879727;29;21293;-73
2023/09/15 12:49:54;;;;;;;1.80;1.80;;;36.30;52.90;;;;;;4887708;29;20451;-72
2023/09/15 12:52:19;;;;;;;1.73;1.73;;;36.50;53.30;;;;;;4883409;29;20275;-73
2023/09/15 12:54:45;;;;;;;2.87;1.80;;;37.20;53.60;;;;;;4884231;29;20315;-72
2023/09/15 12:57:10;;;;;;;1.93;1.90;;;37.80;53.50;;;;;;4884670;29;20287;-72
2023/09/15 12:59:36;;;;;;;1.97;1.90;;;37.60;53.40;;;;;;4881281;29;20205;-72
2023/09/15 13:02:02;;;;;;;2.03;1.93;;;37.20;53.90;;;;;;4881469;29;20328;-71
2023/09/15 13:04:28;;;;;;;2.33;2.03;;;37.60;54.00;;;;;;4879834;29;20203;-72
2023/09/15 13:06:57;;;;;;;1.60;1.60;;;37.70;53.70;;;;;;4882194;29;20197;-72
2023/09/15 13:09:24;;;;;;;1.97;1.83;;;37.80;53.70;;;;;;4884954;29;20973;-73
2023/09/15 13:11:50;;;;;;;1.80;1.70;;;37.60;53.80;;;;;;4884834;29;20841;-73
2023/09/15 13:14:18;;;;;;;1.97;1.73;;;37.20;53.70;;;;;;4885472;29;20463;-72
2023/09/15 13:16:44;;;;;;;1.63;1.63;;;36.70;53.70;;;;;;4879337;29;20547;-73
2023/09/15 13:19:09;;;;;;;1.90;1.90;;;36.50;54.10;;;;;;4886739;29;20575;-74
2023/09/15 13:21:35;;;;;;;3.10;1.70;;;36.80;54.30;;;;;;4881774;29;20201;-73
2023/09/15 13:24:01;;;;;;;2.93;2.60;;;36.40;53.20;;;;;;4883938;29;20279;-73
2023/09/15 13:26:28;;;;;;;2.30;2.10;;;36.00;53.60;;;;;;4882627;29;20205;-72
2023/09/15 13:28:54;;;;;;;2.10;2.10;;;35.80;52.70;;;;;;4881677;29;20264;-74
2023/09/15 13:31:20;;;;;;;2.70;2.63;;;35.70;53.40;;;;;;4882642;29;20453;-73
2023/09/15 13:33:46;;;;;;;2.33;2.17;;;35.70;54.00;;;;;;4884347;29;20544;-73
2023/09/15 13:36:12;;;;;;;1.90;1.90;;;35.90;53.90;;;;;;4883092;29;20185;-73
2023/09/15 13:38:38;;;;;;;1.90;1.80;;;35.90;52.90;;;;;;4876144;29;20492;-73
2023/09/15 13:41:03;;;;;;;1.90;1.80;;;36.10;53.10;;;;;;4880954;29;20453;-73
2023/09/15 13:43:37;;;;;;;1.80;1.80;;;36.30;52.80;;;;;;4884582;29;20215;-72
2023/09/15 13:46:23;;;;;;;1.43;1.43;;;36.30;53.60;;;;;;4876835;29;20365;-74
2023/09/15 13:48:48;;;;;;;2.90;2.30;;;35.70;54.50;;;;;;4869831;29;20459;-72
2023/09/15 13:51:14;;;;;;;1.77;1.77;;;36.20;53.40;;;;;;4891154;29;20446;-73
2023/09/15 13:53:39;;;;;;;2.20;2.10;;;35.90;53.30;;;;;;4876415;29;20241;-72
2023/09/15 13:56:05;;;;;;;1.67;1.67;;;35.60;53.10;;;;;;4879305;29;20801;-72
2023/09/15 13:58:32;;;;;;;2.00;2.00;;;35.30;53.90;;;;;;4879989;29;20536;-73
2023/09/15 14:01:00;;;;;;;3.70;2.27;;;35.50;54.40;;;;;;4870811;29;20224;-73
2023/09/15 14:03:29;;;;;;;1.93;1.93;;;35.50;53.70;;;;;;4879242;29;20482;-73
2023/09/15 14:05:55;;;;;;;2.10;2.00;;;35.20;53.80;;;;;;4876452;29;21009;-74
2023/09/15 14:08:21;;;;;;;2.93;2.10;;;33.80;54.60;;;;;;4877270;29;20214;-73
2023/09/15 14:10:47;;;;;;;2.07;2.03;;;33.70;54.10;;;;;;4880532;29;20444;-73